createdAt,value
2019-04-29T00:00:59.481Z,95.67
2019-04-29T00:03:28.509Z,95.47
2019-04-29T00:05:57.511Z,95.50
2019-04-29T00:08:26.543Z,95.64
2019-04-29T00:10:55.557Z,95.40
2019-04-29T00:13:24.582Z,94.47
2019-04-29T00:16:30.824Z,94.52
2019-04-29T00:19:36.655Z,95.08
2019-04-29T00:22:06.340Z,95.18
2019-04-29T00:24:35.635Z,95.40
2019-04-29T00:27:04.810Z,95.63
2019-04-29T00:29:34.126Z,95.62
2019-04-29T00:32:03.545Z,95.66
2019-04-29T00:34:32.527Z,95.82
2019-04-29T00:37:19.005Z,95.94
2019-04-29T00:40:10.120Z,95.81
2019-04-29T00:42:57.753Z,96.22
2019-04-29T00:45:27.163Z,95.76
2019-04-29T00:47:56.219Z,95.82
2019-04-29T00:50:25.279Z,95.91
2019-04-29T00:52:54.663Z,96.06
2019-04-29T00:55:25.799Z,96.18
2019-04-29T00:57:55.216Z,96.31
2019-04-29T01:00:30.850Z,96.21
2019-04-29T01:02:59.893Z,96.46
2019-04-29T01:05:28.893Z,96.73
2019-04-29T01:07:57.892Z,95.93
2019-04-29T01:10:27.290Z,95.79
2019-04-29T01:12:56.289Z,95.75
2019-04-29T01:15:25.283Z,95.83
2019-04-29T01:17:54.297Z,94.27
2019-04-29T01:20:23.340Z,94.91
2019-04-29T01:22:53.127Z,95.51
2019-04-29T01:25:22.129Z,95.65
2019-04-29T01:28:07.121Z,95.44
2019-04-29T01:30:56.571Z,94.48
2019-04-29T01:33:25.592Z,94.70
2019-04-29T01:36:10.039Z,95.10
2019-04-29T01:38:39.035Z,95.52
2019-04-29T01:41:13.567Z,96.24
2019-04-29T01:44:02.212Z,95.90
2019-04-29T01:46:31.240Z,95.81
2019-04-29T01:49:00.254Z,95.64
2019-04-29T01:51:29.679Z,95.53
2019-04-29T01:53:58.749Z,95.54
2019-04-29T01:56:28.170Z,95.81
2019-04-29T01:58:57.612Z,96.00
2019-04-29T02:01:26.602Z,96.00
2019-04-29T02:03:55.605Z,96.06
2019-04-29T02:06:24.680Z,95.86
2019-04-29T02:08:55.346Z,95.93
2019-04-29T02:11:24.380Z,96.01
2019-04-29T02:13:53.776Z,96.24
2019-04-29T02:16:23.398Z,96.47
2019-04-29T02:18:52.427Z,96.49
2019-04-29T02:21:21.453Z,96.28
2019-04-29T02:23:56.860Z,96.28
2019-04-29T02:26:26.298Z,96.43
2019-04-29T02:28:55.425Z,96.37
2019-04-29T02:31:40.770Z,96.32
2019-04-29T02:34:10.224Z,96.20
2019-04-29T02:36:39.320Z,95.90
2019-04-29T02:39:23.873Z,96.09
2019-04-29T02:42:11.935Z,96.01
2019-04-29T02:44:40.936Z,95.76
2019-04-29T02:47:09.980Z,94.49
2019-04-29T02:49:39.649Z,94.63
2019-04-29T02:52:08.636Z,95.70
2019-04-29T02:54:38.043Z,96.15
2019-04-29T02:57:29.079Z,96.33
2019-04-29T03:00:04.800Z,96.39
2019-04-29T03:02:40.861Z,96.44
2019-04-29T03:05:18.819Z,96.18
2019-04-29T03:07:47.840Z,95.80
2019-04-29T03:10:16.927Z,95.57
2019-04-29T03:12:46.025Z,96.07
2019-04-29T03:15:27.315Z,95.36
2019-04-29T03:17:56.320Z,94.67
2019-04-29T03:20:30.508Z,95.00
2019-04-29T03:23:10.910Z,94.67
2019-04-29T03:25:40.285Z,94.84
2019-04-29T03:28:09.278Z,95.79
2019-04-29T03:30:38.587Z,96.33
2019-04-29T03:33:08.126Z,96.24
2019-04-29T03:35:37.184Z,96.12
2019-04-29T03:38:06.595Z,96.22
2019-04-29T03:40:35.624Z,96.45
2019-04-29T03:43:04.619Z,96.55
2019-04-29T03:45:33.609Z,96.76
2019-04-29T03:48:03.020Z,96.68
2019-04-29T03:50:32.355Z,97.07
2019-04-29T03:53:01.368Z,97.28
2019-04-29T03:55:39.901Z,97.14
2019-04-29T03:58:01.709Z,96.88
2019-04-29T04:00:30.705Z,96.09
2019-04-29T04:03:21.445Z,95.38
2019-04-29T04:06:15.421Z,95.54
2019-04-29T04:09:04.831Z,95.85
2019-04-29T04:11:18.743Z,95.66
2019-04-29T04:13:47.754Z,96.01
2019-04-29T04:16:30.278Z,95.89
2019-04-29T04:19:07.280Z,95.92
2019-04-29T04:21:36.294Z,94.79
2019-04-29T04:24:05.295Z,94.62
2019-04-29T04:26:34.589Z,94.49
2019-04-29T04:29:03.974Z,94.41
2019-04-29T04:31:32.993Z,94.76
2019-04-29T04:34:01.995Z,94.92
2019-04-29T04:36:31.354Z,95.02
2019-04-29T04:39:00.380Z,95.60
2019-04-29T04:41:29.551Z,95.52
2019-04-29T04:43:58.857Z,95.62
2019-04-29T04:46:27.868Z,95.46
2019-04-29T04:48:56.892Z,95.59
2019-04-29T04:51:25.904Z,95.74
2019-04-29T04:53:54.903Z,95.84
2019-04-29T04:56:23.930Z,95.88
2019-04-29T04:58:52.919Z,95.67
2019-04-29T05:01:22.256Z,95.51
2019-04-29T05:03:51.297Z,95.36
2019-04-29T05:06:20.307Z,95.46
2019-04-29T05:08:49.312Z,95.95
2019-04-29T05:11:18.720Z,95.81
2019-04-29T05:13:47.708Z,95.47
2019-04-29T05:16:16.896Z,95.45
2019-04-29T05:18:46.600Z,95.15
2019-04-29T05:21:15.964Z,95.65
2019-04-29T05:23:44.979Z,95.54
2019-04-29T05:26:14.058Z,95.97
2019-04-29T05:28:43.102Z,95.84
2019-04-29T05:31:12.284Z,95.06
2019-04-29T05:33:41.385Z,94.64
2019-04-29T05:36:21.494Z,94.41
2019-04-29T05:39:01.449Z,94.28
2019-04-29T05:41:34.916Z,94.73
2019-04-29T05:44:13.219Z,93.70
2019-04-29T05:46:46.647Z,93.62
2019-04-29T05:49:18.916Z,93.91
2019-04-29T05:52:10.458Z,92.89
2019-04-29T05:54:39.970Z,93.10
2019-04-29T05:57:09.341Z,93.27
2019-04-29T05:59:38.454Z,91.97
2019-04-29T06:02:07.461Z,91.68
2019-04-29T06:04:36.481Z,93.38
2019-04-29T06:07:05.514Z,92.48
2019-04-29T06:09:34.802Z,93.11
2019-04-29T06:12:03.824Z,92.79
2019-04-29T06:14:32.878Z,93.29
2019-04-29T06:17:02.931Z,92.66
2019-04-29T06:19:35.245Z,93.04
2019-04-29T06:22:04.049Z,92.59
2019-04-29T06:24:36.893Z,91.97
2019-04-29T06:27:04.350Z,92.04
2019-04-29T06:29:33.338Z,93.34
2019-04-29T06:32:02.361Z,93.93
2019-04-29T06:34:31.439Z,94.59
2019-04-29T06:37:00.452Z,93.74
2019-04-29T06:39:29.497Z,93.32
2019-04-29T06:41:58.535Z,92.93
2019-04-29T06:44:27.605Z,92.69
2019-04-29T06:46:57.474Z,92.84
2019-04-29T06:49:26.876Z,91.93
2019-04-29T06:51:55.941Z,92.31
2019-04-29T06:54:24.971Z,92.17
2019-04-29T06:56:54.014Z,91.62
2019-04-29T06:59:23.365Z,91.59
2019-04-29T07:01:52.719Z,91.28
2019-04-29T07:04:21.736Z,91.18
2019-04-29T07:06:57.602Z,91.92
2019-04-29T07:09:21.848Z,90.79
2019-04-29T07:11:50.910Z,90.81
2019-04-29T07:14:19.960Z,90.52
2019-04-29T07:16:48.974Z,90.94
2019-04-29T07:19:17.978Z,91.27
2019-04-29T07:21:49.911Z,90.54
2019-04-29T07:24:20.471Z,89.57
2019-04-29T07:26:49.780Z,89.57
2019-04-29T07:29:19.631Z,89.71
2019-04-29T07:31:49.424Z,89.58
2019-04-29T07:34:18.494Z,89.15
2019-04-29T07:36:47.901Z,89.05
2019-04-29T07:39:17.132Z,87.62
2019-04-29T07:41:49.542Z,87.62
2019-04-29T07:44:18.399Z,86.82
2019-04-29T07:46:58.423Z,84.87
2019-04-29T07:49:24.139Z,84.93
2019-04-29T07:51:53.188Z,85.87
2019-04-29T07:54:22.207Z,85.10
2019-04-29T07:56:51.545Z,85.69
2019-04-29T07:59:20.548Z,86.11
2019-04-29T08:01:49.609Z,85.29
2019-04-29T08:04:18.621Z,84.16
2019-04-29T08:06:47.710Z,84.30
2019-04-29T08:09:16.829Z,83.48
2019-04-29T08:11:45.869Z,82.93
2019-04-29T08:14:15.461Z,81.90
2019-04-29T08:16:44.508Z,81.53
2019-04-29T08:19:13.519Z,81.92
2019-04-29T08:21:45.490Z,82.33
2019-04-29T08:24:15.917Z,82.00
2019-04-29T08:26:47.449Z,81.71
2019-04-29T08:29:15.041Z,82.00
2019-04-29T08:31:44.085Z,82.34
2019-04-29T08:34:13.153Z,81.67
2019-04-29T08:36:42.221Z,82.21
2019-04-29T08:39:11.318Z,79.64
2019-04-29T08:41:40.350Z,78.92
2019-04-29T08:44:26.905Z,77.78
2019-04-29T08:46:59.655Z,76.75
2019-04-29T08:49:28.713Z,74.75
2019-04-29T08:51:57.779Z,70.15
2019-04-29T08:54:26.785Z,66.87
2019-04-29T08:57:02.756Z,63.27
2019-04-29T08:59:27.287Z,58.98
2019-04-29T09:01:56.361Z,54.47
2019-04-29T09:04:28.489Z,52.36
2019-04-29T09:06:56.139Z,53.54
2019-04-29T09:09:29.145Z,52.42
2019-04-29T09:11:55.997Z,52.88
2019-04-29T09:14:25.120Z,49.62
2019-04-29T09:16:54.908Z,52.24
2019-04-29T09:19:23.943Z,53.15
2019-04-29T09:21:57.064Z,52.95
2019-04-29T09:24:26.368Z,52.18
2019-04-29T09:27:05.041Z,49.71
2019-04-29T09:29:36.803Z,45.91
2019-04-29T09:32:06.619Z,45.02
2019-04-29T09:34:35.745Z,45.44
2019-04-29T09:37:04.869Z,44.12
2019-04-29T09:39:43.148Z,44.76
2019-04-29T09:42:34.883Z,46.18
2019-04-29T09:45:14.670Z,44.87
2019-04-29T09:47:44.995Z,45.12
2019-04-29T09:50:14.188Z,45.98
2019-04-29T09:52:43.295Z,43.50
2019-04-29T09:55:12.631Z,43.91
2019-04-29T09:57:41.678Z,46.16
2019-04-29T10:00:18.995Z,47.87
2019-04-29T10:03:02.604Z,50.34
2019-04-29T10:05:42.714Z,50.06
2019-04-29T10:08:11.777Z,51.19
2019-04-29T10:10:41.530Z,51.43
2019-04-29T10:13:11.047Z,52.99
2019-04-29T10:16:14.351Z,53.31
2019-04-29T10:18:52.112Z,53.52
2019-04-29T10:21:23.294Z,52.87
2019-04-29T10:23:52.613Z,51.81
2019-04-29T10:26:22.369Z,48.57
2019-04-29T10:28:56.356Z,45.95
2019-04-29T10:31:25.892Z,45.95
2019-04-29T10:33:56.512Z,46.44
2019-04-29T10:36:26.402Z,44.83
2019-04-29T10:38:57.682Z,42.16
2019-04-29T10:41:36.147Z,40.12
2019-04-29T10:44:20.672Z,41.43
2019-04-29T10:47:20.903Z,40.25
2019-04-29T10:49:59.429Z,44.68
2019-04-29T10:52:28.456Z,47.02
2019-04-29T10:54:57.481Z,44.82
2019-04-29T10:57:29.295Z,47.92
2019-04-29T11:00:04.295Z,48.51
2019-04-29T11:02:38.201Z,49.05
2019-04-29T11:05:28.143Z,49.12
2019-04-29T11:08:02.688Z,48.92
2019-04-29T11:10:31.711Z,45.42
2019-04-29T11:13:00.773Z,46.10
2019-04-29T11:15:34.070Z,45.25
2019-04-29T11:18:04.061Z,42.88
2019-04-29T11:20:34.052Z,40.94
2019-04-29T11:23:16.708Z,39.14
2019-04-29T11:25:57.313Z,40.68
2019-04-29T11:28:26.499Z,43.84
2019-04-29T11:30:55.579Z,43.15
2019-04-29T11:33:31.116Z,45.13
2019-04-29T11:36:11.233Z,45.40
2019-04-29T11:38:41.201Z,46.54
2019-04-29T11:41:12.337Z,49.19
2019-04-29T11:43:41.189Z,48.56
2019-04-29T11:46:14.532Z,49.04
2019-04-29T11:48:41.573Z,49.05
2019-04-29T11:51:23.171Z,47.15
2019-04-29T11:53:52.344Z,48.74
2019-04-29T11:56:21.394Z,47.62
2019-04-29T11:59:21.754Z,48.87
2019-04-29T12:02:02.411Z,47.25
2019-04-29T12:04:37.387Z,45.44
2019-04-29T12:07:06.434Z,47.67
2019-04-29T12:09:35.970Z,48.11
2019-04-29T12:12:07.812Z,48.39
2019-04-29T12:14:47.820Z,49.31
2019-04-29T12:17:34.913Z,48.70
2019-04-29T12:20:13.260Z,45.77
2019-04-29T12:22:48.591Z,41.51
2019-04-29T12:25:13.240Z,40.19
2019-04-29T12:27:42.301Z,40.40
2019-04-29T12:30:13.154Z,42.65
2019-04-29T12:33:10.293Z,40.25
2019-04-29T12:36:05.175Z,38.88
2019-04-29T12:38:52.273Z,40.33
2019-04-29T12:41:48.897Z,41.24
2019-04-29T12:44:34.411Z,38.84
2019-04-29T12:46:55.507Z,39.81
2019-04-29T12:49:24.597Z,39.28
2019-04-29T12:51:54.011Z,39.62
2019-04-29T12:54:23.895Z,37.11
2019-04-29T12:56:53.320Z,36.52
2019-04-29T12:59:22.390Z,36.00
2019-04-29T13:02:08.205Z,36.15
2019-04-29T13:04:56.215Z,37.89
2019-04-29T13:07:43.201Z,35.58
2019-04-29T13:10:27.445Z,37.41
2019-04-29T13:12:58.158Z,38.62
2019-04-29T13:15:48.534Z,38.30
2019-04-29T13:18:27.120Z,38.55
2019-04-29T13:21:09.555Z,39.00
2019-04-29T13:23:34.819Z,37.32
2019-04-29T13:25:58.171Z,38.14
2019-04-29T13:28:30.193Z,38.33
2019-04-29T13:30:58.286Z,40.31
2019-04-29T13:33:27.415Z,41.04
2019-04-29T13:35:56.791Z,38.91
2019-04-29T13:38:25.820Z,38.75
2019-04-29T13:41:11.822Z,40.90
2019-04-29T13:43:27.196Z,39.76
2019-04-29T13:46:06.295Z,36.16
2019-04-29T13:49:12.259Z,41.05
2019-04-29T13:51:35.848Z,40.72
2019-04-29T13:54:06.112Z,43.48
2019-04-29T13:56:53.836Z,42.39
2019-04-29T13:59:10.042Z,44.09
2019-04-29T14:02:10.546Z,44.53
2019-04-29T14:04:43.443Z,47.99
2019-04-29T14:07:13.998Z,46.73
2019-04-29T14:09:43.547Z,46.74
2019-04-29T14:12:47.296Z,45.62
2019-04-29T14:14:43.863Z,47.81
2019-04-29T14:17:25.891Z,48.94
2019-04-29T14:19:44.180Z,50.45
2019-04-29T14:22:22.086Z,47.58
2019-04-29T14:24:46.796Z,47.63
2019-04-29T14:27:24.735Z,48.63
2019-04-29T14:29:46.148Z,46.80
2019-04-29T14:32:18.301Z,46.69
2019-04-29T14:35:01.149Z,45.69
2019-04-29T14:37:30.579Z,45.75
2019-04-29T14:40:02.817Z,43.75
2019-04-29T14:42:57.935Z,44.39
2019-04-29T14:45:51.678Z,47.00
2019-04-29T14:48:42.749Z,45.91
2019-04-29T14:51:07.849Z,48.03
2019-04-29T14:53:37.243Z,49.01
2019-04-29T14:56:06.323Z,48.96
2019-04-29T14:58:35.437Z,50.94
2019-04-29T15:01:27.741Z,51.81
2019-04-29T15:04:18.000Z,51.30
2019-04-29T15:06:41.499Z,51.21
2019-04-29T15:09:16.826Z,49.84
2019-04-29T15:11:49.630Z,51.91
2019-04-29T15:14:59.114Z,50.85
2019-04-29T15:17:44.888Z,50.87
2019-04-29T15:20:31.612Z,51.71
2019-04-29T15:23:00.559Z,51.91
2019-04-29T15:25:29.638Z,52.10
2019-04-29T15:27:58.979Z,49.90
2019-04-29T15:30:31.873Z,51.00
2019-04-29T15:33:01.688Z,49.97
2019-04-29T15:35:30.752Z,49.24
2019-04-29T15:38:00.191Z,50.41
2019-04-29T15:40:29.343Z,46.41
2019-04-29T15:42:58.701Z,45.56
2019-04-29T15:45:32.326Z,45.73
2019-04-29T15:48:01.466Z,46.01
2019-04-29T15:50:32.731Z,46.74
2019-04-29T15:53:02.900Z,46.23
2019-04-29T15:55:34.782Z,46.54
2019-04-29T15:58:06.955Z,46.58
2019-04-29T16:00:40.597Z,48.31
2019-04-29T16:03:12.607Z,50.21
2019-04-29T16:06:19.813Z,52.71
2019-04-29T16:08:50.880Z,52.74
2019-04-29T16:11:37.657Z,53.94
2019-04-29T16:14:11.922Z,55.58
2019-04-29T16:16:41.021Z,53.39
2019-04-29T16:19:10.487Z,53.02
2019-04-29T16:21:41.786Z,53.77
2019-04-29T16:24:25.663Z,55.72
2019-04-29T16:26:42.046Z,56.02
2019-04-29T16:29:13.207Z,54.33
2019-04-29T16:31:43.018Z,55.16
2019-04-29T16:34:14.794Z,57.40
2019-04-29T16:36:49.816Z,54.07
2019-04-29T16:39:14.952Z,58.01
2019-04-29T16:42:01.683Z,56.48
2019-04-29T16:44:36.114Z,57.44
2019-04-29T16:47:07.530Z,58.98
2019-04-29T16:49:33.935Z,59.00
2019-04-29T16:52:02.972Z,58.84
2019-04-29T16:54:32.040Z,58.97
2019-04-29T16:57:01.482Z,55.97
2019-04-29T16:59:30.588Z,57.52
2019-04-29T17:01:59.965Z,57.56
2019-04-29T17:04:29.073Z,56.93
2019-04-29T17:09:47.139Z,56.42
2019-04-29T17:12:16.196Z,55.70
2019-04-29T17:15:02.867Z,54.67
2019-04-29T17:17:28.535Z,56.02
2019-04-29T17:19:51.170Z,55.72
2019-04-29T17:22:25.861Z,55.12
2019-04-29T17:24:51.548Z,56.29
2019-04-29T17:27:45.403Z,56.51
2019-04-29T17:30:37.708Z,55.01
2019-04-29T17:33:28.325Z,55.93
2019-04-29T17:35:17.595Z,56.95
2019-04-29T17:35:51.312Z,55.73
2019-04-29T17:38:23.429Z,56.83
2019-04-29T17:40:54.166Z,58.45
2019-04-29T17:43:43.433Z,58.06
2019-04-29T17:46:27.062Z,58.33
2019-04-29T17:49:13.428Z,59.66
2019-04-29T17:51:45.935Z,59.37
2019-04-29T17:54:18.866Z,59.74
2019-04-29T17:57:25.435Z,61.14
2019-04-29T18:00:19.552Z,61.34
2019-04-29T18:03:17.533Z,61.35
2019-04-29T18:06:24.372Z,61.21
2019-04-29T18:09:29.435Z,62.31
2019-04-29T18:12:02.396Z,62.00
2019-04-29T18:14:37.883Z,63.13
2019-04-29T18:17:04.904Z,63.21
2019-04-29T18:19:55.921Z,63.51
2019-04-29T18:22:44.657Z,64.36
2019-04-29T18:25:32.752Z,63.31
2019-04-29T18:28:01.869Z,64.85
2019-04-29T18:30:35.751Z,64.90
2019-04-29T18:33:02.253Z,65.28
2019-04-29T18:35:31.367Z,67.66
2019-04-29T18:38:00.793Z,66.48
2019-04-29T18:40:30.377Z,66.83
2019-04-29T18:43:01.689Z,67.07
2019-04-29T18:45:34.540Z,66.65
2019-04-29T18:48:01.859Z,67.83
2019-04-29T18:50:34.253Z,68.05
2019-04-29T18:53:03.025Z,70.59
2019-04-29T18:55:32.076Z,69.44
2019-04-29T18:58:01.395Z,70.52
2019-04-29T19:00:30.465Z,71.84
2019-04-29T19:03:01.040Z,73.16
2019-04-29T19:05:48.622Z,73.08
2019-04-29T19:08:23.064Z,73.28
2019-04-29T19:10:50.975Z,73.85
2019-04-29T19:13:19.344Z,74.39
2019-04-29T19:15:48.775Z,74.72
2019-04-29T19:18:21.030Z,74.88
2019-04-29T19:20:52.819Z,74.50
2019-04-29T19:23:22.477Z,75.36
2019-04-29T19:25:51.389Z,75.01
2019-04-29T19:28:29.574Z,75.78
2019-04-29T19:30:56.185Z,75.71
2019-04-29T19:33:22.494Z,74.82
2019-04-29T19:38:20.215Z,75.22
2019-04-29T19:40:51.718Z,73.99
2019-04-29T19:43:23.776Z,74.85
2019-04-29T19:45:53.126Z,76.13
2019-04-29T19:48:27.022Z,75.66
2019-04-29T19:51:13.842Z,76.09
2019-04-29T19:53:27.917Z,75.53
2019-04-29T19:56:03.772Z,76.64
2019-04-29T19:58:29.601Z,76.68
2019-04-29T20:01:10.789Z,76.76
2019-04-29T20:03:37.912Z,76.80
2019-04-29T20:06:09.723Z,77.34
2019-04-29T20:08:53.535Z,77.78
2019-04-29T20:11:14.119Z,77.50
2019-04-29T20:13:59.750Z,78.43
2019-04-29T20:16:42.773Z,78.95
2019-04-29T20:19:27.398Z,78.44
2019-04-29T20:22:00.394Z,78.29
2019-04-29T20:24:32.837Z,79.20
2019-04-29T20:27:02.089Z,79.59
2019-04-29T20:29:33.941Z,79.63
2019-04-29T20:32:02.437Z,79.93
2019-04-29T20:34:35.975Z,79.81
2019-04-29T20:37:05.994Z,80.42
2019-04-29T20:39:35.897Z,79.78
2019-04-29T20:42:10.056Z,80.11
2019-04-29T20:44:37.067Z,80.11
2019-04-29T20:47:19.624Z,80.55
2019-04-29T20:49:39.686Z,80.55
2019-04-29T20:52:43.080Z,80.55
2019-04-29T20:55:12.597Z,81.89
2019-04-29T20:57:43.453Z,81.89
2019-04-29T21:00:12.996Z,82.07
2019-04-29T21:02:45.243Z,81.45
2019-04-29T21:05:23.067Z,81.45
2019-04-29T21:07:45.258Z,82.02
2019-04-29T21:10:15.855Z,81.73
2019-04-29T21:13:08.787Z,81.52
2019-04-29T21:15:51.979Z,82.45
2019-04-29T21:18:18.236Z,82.45
2019-04-29T21:20:49.229Z,82.49
2019-04-29T21:23:18.328Z,82.64
2019-04-29T21:25:50.813Z,82.95
2019-04-29T21:28:21.927Z,82.83
2019-04-29T21:30:52.869Z,83.05
2019-04-29T21:33:22.111Z,83.48
2019-04-29T21:36:08.518Z,83.70
2019-04-29T21:38:55.806Z,83.46
2019-04-29T21:41:30.401Z,84.10
2019-04-29T21:44:00.596Z,84.43
2019-04-29T21:46:29.715Z,84.91
2019-04-29T21:48:58.792Z,84.97
2019-04-29T21:51:30.973Z,85.00
2019-04-29T21:54:00.084Z,84.49
2019-04-29T21:56:29.437Z,85.01
2019-04-29T21:58:58.549Z,85.42
2019-04-29T22:01:29.474Z,85.21
2019-04-29T22:04:02.166Z,85.43
2019-04-29T22:06:31.972Z,85.62
2019-04-29T22:09:02.535Z,86.52
2019-04-29T22:11:31.729Z,86.24
2019-04-29T22:14:00.781Z,86.61
2019-04-29T22:16:32.868Z,87.34
2019-04-29T22:19:02.570Z,87.78
2019-04-29T22:21:32.905Z,87.71
2019-04-29T22:24:01.922Z,87.44
2019-04-29T22:26:30.989Z,87.85
2019-04-29T22:29:03.400Z,87.37
2019-04-29T22:31:34.086Z,87.60
2019-04-29T22:34:01.871Z,87.67
2019-04-29T22:36:31.259Z,87.01
2019-04-29T22:39:00.865Z,87.58
2019-04-29T22:41:52.738Z,87.84
2019-04-29T22:44:25.876Z,88.28
2019-04-29T22:46:55.708Z,88.78
2019-04-29T22:49:29.219Z,88.91
2019-04-29T22:51:57.098Z,88.50
2019-04-29T22:54:26.662Z,89.41
2019-04-29T22:56:56.708Z,89.16
2019-04-29T22:59:27.515Z,90.05
2019-04-29T23:01:57.464Z,89.86
2019-04-29T23:04:26.513Z,89.96
2019-04-29T23:06:55.687Z,89.97
2019-04-29T23:09:24.732Z,89.87
2019-04-29T23:11:55.688Z,90.30
2019-04-29T23:14:25.268Z,90.78
2019-04-29T23:16:55.568Z,90.24
2019-04-29T23:19:29.436Z,90.36
2019-04-29T23:22:22.239Z,90.62
2019-04-29T23:25:00.300Z,90.80
2019-04-29T23:27:29.827Z,90.70
2019-04-29T23:29:58.873Z,90.23
2019-04-29T23:32:30.400Z,90.16
2019-04-29T23:35:06.288Z,90.10
2019-04-29T23:37:33.405Z,90.35
2019-04-29T23:40:02.769Z,90.27
2019-04-29T23:42:33.700Z,90.25
2019-04-29T23:45:05.172Z,89.98
2019-04-29T23:47:35.775Z,90.56
2019-04-29T23:50:08.670Z,90.60
2019-04-29T23:52:43.016Z,90.20
2019-04-29T23:55:12.137Z,91.26
2019-04-29T23:58:04.352Z,90.16
